Time,TemperatureF,DewpointF,PressureIn,WindDirection,WindDirectionDegrees,WindSpeedMPH,WindSpeedGustMPH,Humidity,HourlyPrecipIn,Conditions,Clouds,dailyrainin,SolarRadiationWatts/m^2,SoftwareType,DateUTC
2013-09-09 00:01:00,66.1,62.8,30.01,SSW,200,0.0,0.0,89,0.00,,,0.00,0.00,VWS V14.01,2013-09-09 04:01:00,
2013-09-09 00:04:00,66.1,62.8,30.01,SSW,199,0.0,0.0,89,0.00,,,0.00,0.00,VWS V14.01,2013-09-09 04:04:00,
2013-09-09 00:09:00,66.1,62.8,30.01,SSW,200,0.0,0.0,89,0.00,,,0.00,0.00,VWS V14.01,2013-09-09 04:09:00,
2013-09-09 00:10:00,66.1,62.8,30.01,SSW,200,0.0,0.0,89,0.00,,,0.00,0.00,VWS V14.01,2013-09-09 04:10:00,
2013-09-09 00:15:00,65.9,62.6,30.01,SSW,199,0.0,0.0,89,0.00,,,0.00,0.00,VWS V14.01,2013-09-09 04:15:00,
2013-09-09 00:20:00,65.9,62.6,30.01,SSW,199,0.0,0.0,89,0.00,,,0.00,0.00,VWS V14.01,2013-09-09 04:20:00,
2013-09-09 00:25:00,65.9,62.9,30.01,SSW,200,0.0,0.0,90,0.00,,,0.00,0.00,VWS V14.01,2013-09-09 04:25:00,
2013-09-09 00:30:00,65.9,62.9,30.01,SSW,199,0.0,0.0,90,0.00,,,0.00,0.00,VWS V14.01,2013-09-09 04:30:00,
2013-09-09 00:35:00,65.9,62.9,30.02,SSW,200,0.0,0.0,90,0.00,,,0.00,0.00,VWS V14.01,2013-09-09 04:35:00,
2013-09-09 00:40:00,65.9,62.9,30.02,SSW,199,0.0,0.0,90,0.00,,,0.00,0.00,VWS V14.01,2013-09-09 04:40:00,
2013-09-09 00:45:00,65.8,62.8,30.02,SSW,200,0.0,0.0,90,0.00,,,0.00,0.00,VWS V14.01,2013-09-09 04:45:00,
2013-09-09 00:50:00,65.6,62.6,30.02,SSW,200,0.0,0.0,90,0.00,,,0.00,0.00,VWS V14.01,2013-09-09 04:50:00,
2013-09-09 00:55:00,65.6,62.6,30.02,SSW,199,0.0,0.0,90,0.00,,,0.00,0.00,VWS V14.01,2013-09-09 04:55:00,
2013-09-09 01:00:00,65.8,62.8,30.02,SSW,199,0.0,0.0,90,0.00,,,0.00,0.00,VWS V14.01,2013-09-09 05:00:00,
2013-09-09 01:05:00,65.8,62.8,30.03,SSW,199,0.0,0.0,90,0.00,,,0.00,0.00,VWS V14.01,2013-09-09 05:05:00,
2013-09-09 01:10:00,65.8,62.8,30.03,SSW,199,0.0,0.0,90,0.00,,,0.00,0.00,VWS V14.01,2013-09-09 05:10:00,
2013-09-09 01:16:00,65.8,62.8,30.03,SSW,199,0.0,0.0,90,0.00,,,0.00,0.00,VWS V14.01,2013-09-09 05:16:00,
2013-09-09 01:21:00,65.8,62.8,30.03,SSW,199,0.0,0.0,90,0.00,,,0.00,0.00,VWS V14.01,2013-09-09 05:21:00,
2013-09-09 01:26:00,65.8,62.8,30.03,SSW,199,0.0,0.0,90,0.00,,,0.00,0.00,VWS V14.01,2013-09-09 05:26:00,
2013-09-09 01:31:00,65.6,62.6,30.03,SSW,199,0.0,0.0,90,0.00,,,0.00,0.00,VWS V14.01,2013-09-09 05:31:00,
2013-09-09 01:36:00,65.4,62.4,30.03,SSW,199,0.0,0.0,90,0.00,,,0.00,0.00,VWS V14.01,2013-09-09 05:36:00,
2013-09-09 01:41:00,65.3,62.3,30.03,SSW,199,0.0,0.0,90,0.00,,,0.00,0.00,VWS V14.01,2013-09-09 05:41:00,
2013-09-09 01:46:00,65.1,62.1,30.03,SSW,199,1.0,2.0,90,0.00,,,0.00,0.00,VWS V14.01,2013-09-09 05:46:00,
2013-09-09 01:51:00,65.0,62.0,30.03,SSW,200,1.0,2.0,90,0.00,,,0.00,0.00,VWS V14.01,2013-09-09 05:51:00,
2013-09-09 01:56:00,64.8,62.1,30.03,SSW,200,0.0,0.0,91,0.00,,,0.00,0.00,VWS V14.01,2013-09-09 05:56:00,
2013-09-09 02:01:00,64.8,62.1,30.03,SSE,150,0.0,0.0,91,0.00,,,0.00,0.00,VWS V14.01,2013-09-09 06:01:00,
2013-09-09 02:06:00,64.8,62.1,30.03,SSE,150,0.0,0.0,91,0.00,,,0.00,0.00,VWS V14.01,2013-09-09 06:06:00,
2013-09-09 02:11:00,64.8,62.1,30.03,SSE,150,0.0,0.0,91,0.00,,,0.00,0.00,VWS V14.01,2013-09-09 06:11:00,
2013-09-09 02:16:00,64.8,62.1,30.03,SSE,150,0.0,0.0,91,0.00,,,0.00,0.00,VWS V14.01,2013-09-09 06:16:00,
2013-09-09 02:22:00,64.8,62.1,30.04,East,99,1.0,4.0,91,0.00,,,0.00,0.00,VWS V14.01,2013-09-09 06:22:00,
2013-09-09 02:27:00,64.6,61.9,30.04,East,95,0.0,3.0,91,0.00,,,0.00,0.00,VWS V14.01,2013-09-09 06:27:00,
2013-09-09 02:32:00,64.6,61.9,30.04,ESE,103,3.0,5.0,91,0.00,,,0.00,0.00,VWS V14.01,2013-09-09 06:32:00,
2013-09-09 02:37:00,64.6,61.9,30.03,East,85,0.0,2.0,91,0.00,,,0.00,0.00,VWS V14.01,2013-09-09 06:37:00,
2013-09-09 02:42:00,64.5,61.5,30.03,East,93,2.0,5.0,90,0.00,,,0.00,0.00,VWS V14.01,2013-09-09 06:42:00,
2013-09-09 02:47:00,64.5,61.5,30.03,East,100,1.0,3.0,90,0.00,,,0.00,0.00,VWS V14.01,2013-09-09 06:47:00,
2013-09-09 02:52:00,64.3,61.3,30.03,ESE,119,1.0,3.0,90,0.00,,,0.00,0.00,VWS V14.01,2013-09-09 06:52:00,
2013-09-09 02:57:00,64.3,61.3,30.03,East,90,0.0,3.0,90,0.00,,,0.00,0.00,VWS V14.01,2013-09-09 06:57:00,
2013-09-09 03:02:00,64.2,61.2,30.03,East,97,2.0,3.0,90,0.00,,,0.00,0.00,VWS V14.01,2013-09-09 07:02:00,
2013-09-09 03:07:00,64.2,61.2,30.04,ESE,106,0.0,3.0,90,0.00,,OVC037,0.00,0.00,VWS V14.01,2013-09-09 07:07:00,
2013-09-09 03:12:00,64.0,61.0,30.04,East,89,1.0,5.0,90,0.00,,OVC037,0.00,0.00,VWS V14.01,2013-09-09 07:12:00,
2013-09-09 03:17:00,64.0,60.7,30.04,ESE,114,2.0,3.0,89,0.00,,OVC037,0.00,0.00,VWS V14.01,2013-09-09 07:17:00,
2013-09-09 03:22:00,63.8,60.5,30.04,East,99,0.0,5.0,89,0.00,,OVC037,0.00,0.00,VWS V14.01,2013-09-09 07:22:00,
2013-09-09 03:28:00,63.8,60.5,30.04,East,80,0.0,2.0,89,0.00,,OVC037,0.00,0.00,VWS V14.01,2013-09-09 07:28:00,
2013-09-09 03:33:00,63.8,60.5,30.04,ESE,117,0.0,2.0,89,0.00,,OVC037,0.00,0.00,VWS V14.01,2013-09-09 07:33:00,
2013-09-09 03:38:00,63.8,60.5,30.04,ESE,103,2.0,2.0,89,0.00,,OVC037,0.00,0.00,VWS V14.01,2013-09-09 07:38:00,
2013-09-09 03:43:00,63.7,60.7,30.04,East,95,2.0,5.0,90,0.00,,OVC037,0.00,0.00,VWS V14.01,2013-09-09 07:43:00,
2013-09-09 03:48:00,63.7,60.7,30.05,East,85,2.0,2.0,90,0.00,,OVC037,0.00,0.00,VWS V14.01,2013-09-09 07:48:00,
2013-09-09 03:53:00,63.7,60.4,30.05,ENE,78,2.0,5.0,89,0.00,,OVC037,0.00,0.00,VWS V14.01,2013-09-09 07:53:00,
2013-09-09 03:58:00,63.7,60.4,30.05,East,96,3.0,5.0,89,0.00,,OVC037,0.00,0.00,VWS V14.01,2013-09-09 07:58:00,
2013-09-09 04:03:00,63.7,60.4,30.05,East,95,1.0,5.0,89,0.00,,OVC037,0.00,0.00,VWS V14.01,2013-09-09 08:03:00,
2013-09-09 04:08:00,63.7,60.4,30.05,East,95,0.0,1.0,89,0.00,,OVC024,0.00,0.00,VWS V14.01,2013-09-09 08:08:00,
2013-09-09 04:13:00,63.7,60.1,30.05,ESE,112,1.0,1.0,88,0.00,,OVC024,0.00,0.00,VWS V14.01,2013-09-09 08:13:00,
2013-09-09 04:18:00,63.7,60.1,30.06,SE,128,1.0,3.0,88,0.00,,OVC024,0.00,0.00,VWS V14.01,2013-09-09 08:18:00,
2013-09-09 04:23:00,63.7,60.1,30.06,East,83,3.0,3.0,88,0.00,,OVC024,0.00,0.00,VWS V14.01,2013-09-09 08:23:00,
2013-09-09 04:29:00,63.7,59.8,30.06,ESE,106,2.0,4.0,87,0.00,,OVC024,0.00,0.00,VWS V14.01,2013-09-09 08:29:00,
2013-09-09 04:34:00,63.7,59.8,30.07,East,92,0.0,2.0,87,0.00,,OVC024,0.00,0.00,VWS V14.01,2013-09-09 08:34:00,
2013-09-09 04:39:00,63.7,59.4,30.07,East,86,1.0,7.0,86,0.00,,OVC024,0.00,0.00,VWS V14.01,2013-09-09 08:39:00,
2013-09-09 04:44:00,63.7,59.4,30.07,East,92,0.0,1.0,86,0.00,,OVC024,0.00,0.00,VWS V14.01,2013-09-09 08:44:00,
2013-09-09 04:49:00,63.7,59.1,30.07,East,79,1.0,5.0,85,0.00,,OVC024,0.00,0.00,VWS V14.01,2013-09-09 08:49:00,
2013-09-09 04:54:00,63.7,59.1,30.07,East,97,3.0,4.0,85,0.00,,OVC024,0.00,0.00,VWS V14.01,2013-09-09 08:54:00,
2013-09-09 04:59:00,63.7,58.8,30.07,East,99,0.0,6.0,84,0.00,,OVC024,0.00,0.00,VWS V14.01,2013-09-09 08:59:00,
2013-09-09 05:04:00,63.7,58.8,30.07,ESE,117,0.0,2.0,84,0.00,,OVC024,0.00,0.00,VWS V14.01,2013-09-09 09:04:00,
2013-09-09 05:09:00,63.7,58.8,30.07,East,86,5.0,6.0,84,0.00,,OVC024,0.00,0.00,VWS V14.01,2013-09-09 09:09:00,
2013-09-09 05:14:00,63.5,58.2,30.07,ESE,104,0.0,3.0,83,0.00,,OVC024,0.00,0.00,VWS V14.01,2013-09-09 09:14:00,
2013-09-09 05:19:00,63.5,58.2,30.08,SE,134,0.0,3.0,83,0.00,,OVC024,0.00,0.00,VWS V14.01,2013-09-09 09:19:00,
2013-09-09 05:24:00,63.5,58.2,30.08,East,96,0.0,1.0,83,0.00,,OVC024,0.00,0.00,VWS V14.01,2013-09-09 09:24:00,
2013-09-09 05:29:00,63.5,57.9,30.08,East,92,0.0,4.0,82,0.00,,OVC024,0.00,0.00,VWS V14.01,2013-09-09 09:29:00,
2013-09-09 05:35:00,63.3,57.7,30.08,East,90,0.0,2.0,82,0.00,,OVC024,0.00,0.00,VWS V14.01,2013-09-09 09:35:00,
2013-09-09 05:40:00,63.3,57.4,30.08,NE,56,3.0,3.0,81,0.00,,OVC024,0.00,0.00,VWS V14.01,2013-09-09 09:40:00,
2013-09-09 05:45:00,63.3,57.4,30.08,ESE,102,0.0,1.0,81,0.00,,OVC024,0.00,0.00,VWS V14.01,2013-09-09 09:45:00,
2013-09-09 05:50:00,63.3,57.4,30.08,ESE,123,1.0,3.0,81,0.00,,OVC024,0.00,0.00,VWS V14.01,2013-09-09 09:50:00,
2013-09-09 05:55:00,63.3,57.4,30.08,East,82,0.0,2.0,81,0.00,,OVC024,0.00,0.00,VWS V14.01,2013-09-09 09:55:00,
2013-09-09 06:00:00,63.2,57.3,30.08,ESE,107,1.0,4.0,81,0.00,,OVC024,0.00,0.00,VWS V14.01,2013-09-09 10:00:00,
2013-09-09 06:05:00,63.2,57.3,30.09,ENE,64,1.0,2.0,81,0.00,,OVC026,0.00,0.00,VWS V14.01,2013-09-09 10:05:00,
2013-09-09 06:10:00,63.2,56.9,30.09,East,90,1.0,3.0,80,0.00,,OVC026,0.00,0.00,VWS V14.01,2013-09-09 10:10:00,
2013-09-09 06:15:00,63.0,56.7,30.09,ENE,59,1.0,2.0,80,0.00,,OVC026,0.00,0.00,VWS V14.01,2013-09-09 10:15:00,
2013-09-09 06:20:00,62.9,56.3,30.10,East,83,1.0,7.0,79,0.00,,OVC026,0.00,0.00,VWS V14.01,2013-09-09 10:20:00,
2013-09-09 06:25:00,62.9,56.3,30.10,East,93,0.0,5.0,79,0.00,,OVC026,0.00,0.00,VWS V14.01,2013-09-09 10:25:00,
2013-09-09 06:30:00,62.9,56.3,30.10,ENE,76,1.0,5.0,79,0.00,,OVC026,0.00,0.00,VWS V14.01,2013-09-09 10:30:00,
2013-09-09 06:35:00,62.9,55.9,30.11,ENE,78,1.0,5.0,78,0.00,,OVC026,0.00,0.00,VWS V14.01,2013-09-09 10:35:00,
2013-09-09 06:41:00,62.7,55.8,30.11,ESE,104,0.0,6.0,78,0.00,,OVC026,0.00,0.00,VWS V14.01,2013-09-09 10:41:00,
2013-09-09 06:46:00,62.7,55.4,30.11,ESE,113,0.0,3.0,77,0.00,,OVC026,0.00,5.00,VWS V14.01,2013-09-09 10:46:00,
2013-09-09 06:51:00,62.7,55.4,30.11,East,93,0.0,3.0,77,0.00,,OVC026,0.00,5.00,VWS V14.01,2013-09-09 10:51:00,
2013-09-09 06:56:00,62.5,55.6,30.11,ESE,119,0.0,2.0,78,0.00,,OVC026,0.00,5.00,VWS V14.01,2013-09-09 10:56:00,
2013-09-09 07:01:00,62.5,55.6,30.11,ENE,64,0.0,3.0,78,0.00,,OVC026,0.00,7.00,VWS V14.01,2013-09-09 11:01:00,
2013-09-09 07:06:00,62.5,55.9,30.12,NE,49,1.0,1.0,79,0.00,,OVC026,0.00,11.00,VWS V14.01,2013-09-09 11:06:00,
2013-09-09 07:11:00,62.4,55.5,30.12,East,83,1.0,3.0,78,0.00,,OVC026,0.00,14.00,VWS V14.01,2013-09-09 11:11:00,
2013-09-09 07:16:00,62.4,55.5,30.12,NE,47,0.0,1.0,78,0.00,,OVC026,0.00,19.00,VWS V14.01,2013-09-09 11:16:00,
2013-09-09 07:21:00,62.4,55.1,30.13,ENE,71,2.0,6.0,77,0.00,,OVC026,0.00,37.00,VWS V14.01,2013-09-09 11:21:00,
2013-09-09 07:26:00,62.4,55.1,30.13,East,85,0.0,2.0,77,0.00,,OVC026,0.00,44.00,VWS V14.01,2013-09-09 11:26:00,
2013-09-09 07:31:00,62.4,54.8,30.13,ENE,76,1.0,5.0,76,0.00,,OVC026,0.00,58.00,VWS V14.01,2013-09-09 11:31:00,
2013-09-09 07:36:00,62.4,55.1,30.13,ESE,106,0.0,2.0,77,0.00,,OVC026,0.00,56.00,VWS V14.01,2013-09-09 11:36:00,
2013-09-09 07:41:00,62.4,55.1,30.13,ENE,68,0.0,4.0,77,0.00,,OVC026,0.00,49.00,VWS V14.01,2013-09-09 11:41:00,
2013-09-09 07:46:00,62.4,54.8,30.13,East,96,2.0,5.0,76,0.00,,OVC026,0.00,37.00,VWS V14.01,2013-09-09 11:46:00,
2013-09-09 07:52:00,62.4,54.4,30.13,ENE,58,2.0,6.0,75,0.00,,OVC026,0.00,35.00,VWS V14.01,2013-09-09 11:52:00,
2013-09-09 07:57:00,62.2,54.2,30.13,East,83,2.0,6.0,75,0.00,,OVC026,0.00,26.00,VWS V14.01,2013-09-09 11:57:00,
2013-09-09 08:02:00,62.2,54.2,30.13,East,82,0.0,6.0,75,0.00,,OVC026,0.00,26.00,VWS V14.01,2013-09-09 12:02:00,
2013-09-09 08:07:00,62.2,54.2,30.14,ESE,104,4.0,5.0,75,0.00,,OVC026,0.00,30.00,VWS V14.01,2013-09-09 12:07:00,
2013-09-09 08:12:00,62.2,54.2,30.14,East,95,1.0,5.0,75,0.00,,OVC026,0.00,33.00,VWS V14.01,2013-09-09 12:12:00,
2013-09-09 08:17:00,62.1,54.1,30.14,East,79,0.0,4.0,75,0.00,,OVC026,0.00,35.00,VWS V14.01,2013-09-09 12:17:00,
2013-09-09 08:22:00,62.1,54.1,30.14,ESE,120,0.0,5.0,75,0.00,,OVC026,0.00,46.00,VWS V14.01,2013-09-09 12:22:00,
2013-09-09 08:27:00,62.1,54.1,30.14,ESE,110,1.0,3.0,75,0.00,,OVC026,0.00,67.00,VWS V14.01,2013-09-09 12:27:00,
2013-09-09 08:32:00,62.1,53.7,30.14,ENE,73,2.0,5.0,74,0.00,,OVC026,0.00,77.00,VWS V14.01,2013-09-09 12:32:00,
2013-09-09 08:37:00,62.1,53.7,30.14,NE,49,2.0,5.0,74,0.00,,OVC026,0.00,99.00,VWS V14.01,2013-09-09 12:37:00,
2013-09-09 08:42:00,62.2,53.8,30.14,East,79,0.0,5.0,74,0.00,,OVC026,0.00,88.00,VWS V14.01,2013-09-09 12:42:00,
2013-09-09 08:47:00,62.4,54.4,30.15,ENE,64,0.0,2.0,75,0.00,,OVC026,0.00,106.00,VWS V14.01,2013-09-09 12:47:00,
2013-09-09 08:52:00,62.5,53.7,30.15,East,80,1.0,3.0,73,0.00,,OVC026,0.00,111.00,VWS V14.01,2013-09-09 12:52:00,
2013-09-09 08:58:00,62.5,53.7,30.15,East,79,1.0,3.0,73,0.00,,OVC026,0.00,113.00,VWS V14.01,2013-09-09 12:58:00,
2013-09-09 09:03:00,62.7,54.3,30.14,East,85,0.0,3.0,74,0.00,,OVC026,0.00,104.00,VWS V14.01,2013-09-09 13:03:00,
2013-09-09 09:08:00,62.9,54.1,30.14,ENE,69,2.0,4.0,73,0.00,,OVC019,0.00,104.00,VWS V14.01,2013-09-09 13:08:00,
2013-09-09 09:13:00,62.9,54.1,30.14,NE,51,0.0,4.0,73,0.00,,OVC019,0.00,86.00,VWS V14.01,2013-09-09 13:13:00,
2013-09-09 09:18:00,62.9,53.8,30.15,NE,54,0.0,6.0,72,0.00,,OVC019,0.00,125.00,VWS V14.01,2013-09-09 13:18:00,
2013-09-09 09:23:00,62.9,53.8,30.15,ENE,72,0.0,6.0,72,0.00,,OVC019,0.00,141.00,VWS V14.01,2013-09-09 13:23:00,
2013-09-09 09:28:00,62.9,53.0,30.15,East,90,4.0,5.0,70,0.00,,OVC019,0.00,172.00,VWS V14.01,2013-09-09 13:28:00,
2013-09-09 09:33:00,63.0,53.1,30.16,SE,136,1.0,5.0,70,0.00,,OVC019,0.00,190.00,VWS V14.01,2013-09-09 13:33:00,
2013-09-09 09:38:00,63.3,53.4,30.16,ENE,62,0.0,3.0,70,0.00,,OVC019,0.00,206.00,VWS V14.01,2013-09-09 13:38:00,
2013-09-09 09:43:00,63.5,53.9,30.16,East,90,2.0,2.0,71,0.00,,OVC019,0.00,178.00,VWS V14.01,2013-09-09 13:43:00,
2013-09-09 09:48:00,63.8,53.8,30.16,ENE,66,0.0,2.0,70,0.00,,OVC019,0.00,199.00,VWS V14.01,2013-09-09 13:48:00,
2013-09-09 09:53:00,64.2,53.8,30.16,East,85,2.0,3.0,69,0.00,,OVC019,0.00,266.00,VWS V14.01,2013-09-09 13:53:00,
2013-09-09 09:58:00,64.3,53.1,30.16,East,93,2.0,5.0,67,0.00,,OVC019,0.00,264.00,VWS V14.01,2013-09-09 13:58:00,
2013-09-09 10:03:00,64.5,53.3,30.16,East,85,1.0,2.0,67,0.00,,OVC019,0.00,274.00,VWS V14.01,2013-09-09 14:03:00,
2013-09-09 10:09:00,64.6,52.6,30.16,ENE,78,0.0,6.0,65,0.00,,OVC025,0.00,299.00,VWS V14.01,2013-09-09 14:09:00,
2013-09-09 10:14:00,65.0,53.4,30.16,East,99,5.0,5.0,66,0.00,,OVC025,0.00,290.00,VWS V14.01,2013-09-09 14:14:00,
2013-09-09 10:19:00,65.1,53.5,30.16,East,96,5.0,5.0,66,0.00,,OVC025,0.00,324.00,VWS V14.01,2013-09-09 14:19:00,
2013-09-09 10:24:00,65.3,54.1,30.16,NE,44,1.0,3.0,67,0.00,,OVC025,0.00,299.00,VWS V14.01,2013-09-09 14:24:00,
2013-09-09 10:29:00,65.4,53.3,30.16,ENE,68,3.0,3.0,65,0.00,,OVC025,0.00,276.00,VWS V14.01,2013-09-09 14:29:00,
2013-09-09 10:34:00,65.6,54.0,30.16,ENE,64,1.0,2.0,66,0.00,,OVC025,0.00,336.00,VWS V14.01,2013-09-09 14:34:00,
2013-09-09 10:39:00,65.8,54.1,30.16,ENE,66,0.0,5.0,66,0.00,,OVC025,0.00,357.00,VWS V14.01,2013-09-09 14:39:00,
2013-09-09 10:44:00,66.1,54.4,30.16,East,80,0.0,2.0,66,0.00,,OVC025,0.00,320.00,VWS V14.01,2013-09-09 14:44:00,
2013-09-09 10:49:00,66.3,55.4,30.16,ENE,71,0.0,4.0,68,0.00,,OVC025,0.00,343.00,VWS V14.01,2013-09-09 14:49:00,
2013-09-09 10:54:00,66.4,55.1,30.16,NE,55,3.0,3.0,67,0.00,,OVC025,0.00,271.00,VWS V14.01,2013-09-09 14:54:00,
2013-09-09 10:59:00,66.6,54.9,30.16,East,92,1.0,3.0,66,0.00,,OVC025,0.00,341.00,VWS V14.01,2013-09-09 14:59:00,
2013-09-09 11:04:00,66.8,55.1,30.16,ENE,78,2.0,2.0,66,0.00,,OVC023,0.00,396.00,VWS V14.01,2013-09-09 15:04:00,
2013-09-09 11:09:00,66.9,55.2,30.16,East,80,0.0,5.0,66,0.00,,OVC023,0.00,343.00,VWS V14.01,2013-09-09 15:09:00,
2013-09-09 11:15:00,67.1,55.4,30.16,ENE,68,1.0,3.0,66,0.00,,OVC023,0.00,377.00,VWS V14.01,2013-09-09 15:15:00,
2013-09-09 11:20:00,67.3,55.2,30.16,North,357,0.0,6.0,65,0.00,,OVC023,0.00,433.00,VWS V14.01,2013-09-09 15:20:00,
2013-09-09 11:25:00,67.4,55.2,30.16,ENE,75,0.0,3.0,65,0.00,,OVC023,0.00,443.00,VWS V14.01,2013-09-09 15:25:00,
2013-09-09 11:30:00,67.8,55.6,30.16,East,80,0.0,3.0,65,0.00,,OVC023,0.00,510.00,VWS V14.01,2013-09-09 15:30:00,
2013-09-09 11:35:00,68.1,55.9,30.16,ESE,116,0.0,0.0,65,0.00,,OVC023,0.00,472.00,VWS V14.01,2013-09-09 15:35:00,
2013-09-09 11:40:00,68.3,56.1,30.16,East,93,0.0,5.0,65,0.00,,OVC023,0.00,496.00,VWS V14.01,2013-09-09 15:40:00,
2013-09-09 11:45:00,68.4,56.2,30.16,NE,51,0.0,3.0,65,0.00,,OVC023,0.00,665.00,VWS V14.01,2013-09-09 15:45:00,
2013-09-09 11:50:00,68.8,55.7,30.15,NE,56,0.0,5.0,63,0.00,,OVC023,0.00,750.00,VWS V14.01,2013-09-09 15:50:00,
2013-09-09 11:55:00,69.1,55.5,30.15,SW,226,0.0,3.0,62,0.00,,OVC023,0.00,725.00,VWS V14.01,2013-09-09 15:55:00,
2013-09-09 12:00:00,69.8,57.5,30.15,North,352,0.0,3.0,65,0.00,,OVC023,0.00,693.00,VWS V14.01,2013-09-09 16:00:00,
2013-09-09 12:05:00,70.3,58.0,30.14,East,80,1.0,3.0,65,0.00,,SCT025,0.00,644.00,VWS V14.01,2013-09-09 16:05:00,
2013-09-09 12:10:00,70.5,56.4,30.14,East,96,0.0,5.0,61,0.00,,SCT025,0.00,714.00,VWS V14.01,2013-09-09 16:10:00,
2013-09-09 12:15:00,70.8,57.2,30.14,ENE,66,2.0,3.0,62,0.00,,SCT025,0.00,739.00,VWS V14.01,2013-09-09 16:15:00,
2013-09-09 12:21:00,71.1,57.9,30.14,ENE,75,1.0,3.0,63,0.00,,SCT025,0.00,600.00,VWS V14.01,2013-09-09 16:21:00,
2013-09-09 12:26:00,71.5,57.8,30.14,ENE,75,5.0,5.0,62,0.00,,SCT025,0.00,607.00,VWS V14.01,2013-09-09 16:26:00,
2013-09-09 12:31:00,71.5,58.3,30.14,ENE,59,2.0,7.0,63,0.00,,SCT025,0.00,721.00,VWS V14.01,2013-09-09 16:31:00,
2013-09-09 12:36:00,71.5,57.4,30.13,NW,326,3.0,5.0,61,0.00,,SCT025,0.00,565.00,VWS V14.01,2013-09-09 16:36:00,
2013-09-09 12:41:00,71.5,57.4,30.13,SE,133,0.0,5.0,61,0.00,,SCT025,0.00,538.00,VWS V14.01,2013-09-09 16:41:00,
2013-09-09 12:46:00,71.5,57.8,30.13,NE,40,3.0,6.0,62,0.00,,SCT025,0.00,568.00,VWS V14.01,2013-09-09 16:46:00,
2013-09-09 12:51:00,71.7,58.5,30.12,ENE,66,0.0,6.0,63,0.00,,SCT025,0.00,621.00,VWS V14.01,2013-09-09 16:51:00,
2013-09-09 12:56:00,71.8,58.5,30.12,ENE,66,0.0,2.0,63,0.00,,SCT025,0.00,757.00,VWS V14.01,2013-09-09 16:56:00,
2013-09-09 13:01:00,72.3,58.1,30.12,East,92,0.0,3.0,61,0.00,,SCT025,0.00,713.00,VWS V14.01,2013-09-09 17:01:00,
2013-09-09 13:06:00,73.0,59.2,30.12,East,80,0.0,5.0,62,0.00,,CLR,0.00,816.00,VWS V14.01,2013-09-09 17:06:00,
2013-09-09 13:11:00,73.4,59.6,30.12,North,0,0.0,5.0,62,0.00,,CLR,0.00,744.00,VWS V14.01,2013-09-09 17:11:00,
2013-09-09 13:16:00,73.6,58.9,30.12,NE,51,2.0,5.0,60,0.00,,CLR,0.00,880.00,VWS V14.01,2013-09-09 17:16:00,
2013-09-09 13:21:00,74.3,60.5,30.11,ENE,59,1.0,5.0,62,0.00,,CLR,0.00,662.00,VWS V14.01,2013-09-09 17:21:00,
2013-09-09 13:27:00,74.3,59.1,30.11,East,79,3.0,4.0,59,0.00,,CLR,0.00,605.00,VWS V14.01,2013-09-09 17:27:00,
2013-09-09 13:32:00,74.3,59.5,30.11,ESE,113,3.0,4.0,60,0.00,,CLR,0.00,721.00,VWS V14.01,2013-09-09 17:32:00,
2013-09-09 13:37:00,74.3,60.5,30.11,NE,47,2.0,5.0,62,0.00,,CLR,0.00,526.00,VWS V14.01,2013-09-09 17:37:00,
2013-09-09 13:42:00,74.3,59.1,30.11,East,93,2.0,6.0,59,0.00,,CLR,0.00,602.00,VWS V14.01,2013-09-09 17:42:00,
2013-09-09 13:47:00,74.4,59.6,30.11,East,93,4.0,6.0,60,0.00,,CLR,0.00,551.00,VWS V14.01,2013-09-09 17:47:00,
2013-09-09 13:52:00,74.6,60.3,30.11,ENE,62,3.0,6.0,61,0.00,,CLR,0.00,459.00,VWS V14.01,2013-09-09 17:52:00,
2013-09-09 13:57:00,74.6,60.7,30.11,East,83,2.0,3.0,62,0.00,,CLR,0.00,419.00,VWS V14.01,2013-09-09 17:57:00,
2013-09-09 14:02:00,74.8,60.9,30.11,East,88,1.0,3.0,62,0.00,,CLR,0.00,537.00,VWS V14.01,2013-09-09 18:02:00,
2013-09-09 14:07:00,74.8,60.9,30.10,ENE,78,2.0,6.0,62,0.00,,CLR,0.00,635.00,VWS V14.01,2013-09-09 18:07:00,
2013-09-09 14:12:00,75.0,61.1,30.10,East,79,2.0,6.0,62,0.00,,CLR,0.00,491.00,VWS V14.01,2013-09-09 18:12:00,
2013-09-09 14:17:00,75.1,60.3,30.09,East,89,0.0,5.0,60,0.00,,CLR,0.00,440.00,VWS V14.01,2013-09-09 18:17:00,
2013-09-09 14:22:00,75.3,60.0,30.09,East,85,2.0,6.0,59,0.00,,CLR,0.00,542.00,VWS V14.01,2013-09-09 18:22:00,
2013-09-09 14:27:00,75.3,60.5,30.09,East,80,1.0,6.0,60,0.00,,CLR,0.00,734.00,VWS V14.01,2013-09-09 18:27:00,
2013-09-09 14:33:00,75.7,61.8,30.09,East,100,1.0,6.0,62,0.00,,CLR,0.00,813.00,VWS V14.01,2013-09-09 18:33:00,
2013-09-09 14:38:00,76.0,60.7,30.09,ESE,103,0.0,4.0,59,0.00,,CLR,0.00,721.00,VWS V14.01,2013-09-09 18:38:00,
2013-09-09 14:43:00,76.6,60.7,30.09,ENE,58,3.0,5.0,58,0.00,,CLR,0.00,748.00,VWS V14.01,2013-09-09 18:43:00,
2013-09-09 14:48:00,77.1,62.2,30.08,NE,51,1.0,4.0,60,0.00,,CLR,0.00,651.00,VWS V14.01,2013-09-09 18:48:00,
2013-09-09 14:53:00,77.3,62.3,30.08,NE,54,0.0,4.0,60,0.00,,CLR,0.00,554.00,VWS V14.01,2013-09-09 18:53:00,
2013-09-09 14:58:00,77.1,62.6,30.08,East,83,0.0,3.0,61,0.00,,CLR,0.00,419.00,VWS V14.01,2013-09-09 18:58:00,
2013-09-09 15:03:00,77.3,62.3,30.07,ENE,78,1.0,4.0,60,0.00,,CLR,0.00,408.00,VWS V14.01,2013-09-09 19:03:00,
2013-09-09 15:08:00,77.1,61.7,30.07,ENE,68,2.0,5.0,59,0.00,,CLR,0.00,340.00,VWS V14.01,2013-09-09 19:08:00,
2013-09-09 15:13:00,77.1,61.7,30.07,ENE,64,3.0,6.0,59,0.00,,CLR,0.00,373.00,VWS V14.01,2013-09-09 19:13:00,
2013-09-09 15:18:00,76.9,63.4,30.06,ESE,102,0.0,6.0,63,0.00,,CLR,0.00,343.00,VWS V14.01,2013-09-09 19:18:00,
2013-09-09 15:23:00,76.9,62.0,30.06,NE,51,4.0,4.0,60,0.00,,CLR,0.00,331.00,VWS V14.01,2013-09-09 19:23:00,
2013-09-09 15:28:00,76.7,61.8,30.06,East,100,2.0,5.0,60,0.00,,CLR,0.00,352.00,VWS V14.01,2013-09-09 19:28:00,
2013-09-09 15:33:00,76.7,61.8,30.06,NE,34,6.0,6.0,60,0.00,,CLR,0.00,436.00,VWS V14.01,2013-09-09 19:33:00,
2013-09-09 15:38:00,76.9,62.4,30.06,ENE,69,0.0,8.0,61,0.00,,CLR,0.00,362.00,VWS V14.01,2013-09-09 19:38:00,
2013-09-09 15:44:00,76.9,62.4,30.06,East,79,1.0,3.0,61,0.00,,CLR,0.00,619.00,VWS V14.01,2013-09-09 19:44:00,
2013-09-09 15:49:00,77.1,62.6,30.06,North,0,3.0,7.0,61,0.00,,CLR,0.00,561.00,VWS V14.01,2013-09-09 19:49:00,
2013-09-09 15:54:00,77.5,63.0,30.06,ENE,66,6.0,6.0,61,0.00,,CLR,0.00,648.00,VWS V14.01,2013-09-09 19:54:00,
2013-09-09 15:59:00,78.0,62.0,30.06,East,100,4.0,7.0,58,0.00,,CLR,0.00,637.00,VWS V14.01,2013-09-09 19:59:00,
2013-09-09 16:04:00,78.2,63.2,30.06,East,83,2.0,6.0,60,0.00,,CLR,0.00,605.00,VWS V14.01,2013-09-09 20:04:00,
2013-09-09 16:09:00,78.2,62.2,30.06,East,79,2.0,10.0,58,0.00,,CLR,0.00,436.00,VWS V14.01,2013-09-09 20:09:00,
2013-09-09 16:14:00,78.2,62.7,30.06,ESE,103,3.0,5.0,59,0.00,,CLR,0.00,514.00,VWS V14.01,2013-09-09 20:14:00,
2013-09-09 16:19:00,78.2,63.7,30.06,NNE,27,5.0,7.0,61,0.00,,CLR,0.00,584.00,VWS V14.01,2013-09-09 20:19:00,
2013-09-09 16:24:00,78.4,62.9,30.06,ENE,64,2.0,7.0,59,0.00,,CLR,0.00,554.00,VWS V14.01,2013-09-09 20:24:00,
2013-09-09 16:29:00,78.8,64.2,30.06,ENE,66,1.0,8.0,61,0.00,,CLR,0.00,521.00,VWS V14.01,2013-09-09 20:29:00,
2013-09-09 16:34:00,78.9,62.9,30.05,NE,52,8.0,8.0,58,0.00,,CLR,0.00,512.00,VWS V14.01,2013-09-09 20:34:00,
2013-09-09 16:39:00,78.9,62.9,30.05,East,80,2.0,8.0,58,0.00,,CLR,0.00,472.00,VWS V14.01,2013-09-09 20:39:00,
2013-09-09 16:44:00,79.1,63.1,30.05,NE,52,7.0,7.0,58,0.00,,CLR,0.00,477.00,VWS V14.01,2013-09-09 20:44:00,
2013-09-09 16:50:00,79.3,63.7,30.04,NE,55,6.0,7.0,59,0.00,,CLR,0.00,391.00,VWS V14.01,2013-09-09 20:50:00,
2013-09-09 16:55:00,78.8,63.3,30.04,ENE,72,7.0,7.0,59,0.00,,CLR,0.00,148.00,VWS V14.01,2013-09-09 20:55:00,
2013-09-09 17:00:00,78.8,64.7,30.04,ENE,75,0.0,7.0,62,0.00,,CLR,0.00,435.00,VWS V14.01,2013-09-09 21:00:00,
2013-09-09 17:05:00,78.6,63.1,30.04,East,92,6.0,7.0,59,0.00,,SCT043,0.00,385.00,VWS V14.01,2013-09-09 21:05:00,
2013-09-09 17:10:00,78.0,63.5,30.04,ENE,64,6.0,8.0,61,0.00,,SCT043,0.00,93.00,VWS V14.01,2013-09-09 21:10:00,
2013-09-09 17:15:00,77.5,63.5,30.04,East,82,1.0,3.0,62,0.00,,SCT043,0.00,178.00,VWS V14.01,2013-09-09 21:15:00,
2013-09-09 17:20:00,77.1,63.1,30.04,ENE,59,1.0,5.0,62,0.00,,SCT043,0.00,287.00,VWS V14.01,2013-09-09 21:20:00,
2013-09-09 17:25:00,77.3,63.3,30.04,NE,45,3.0,6.0,62,0.00,,SCT043,0.00,347.00,VWS V14.01,2013-09-09 21:25:00,
2013-09-09 17:30:00,77.5,63.0,30.04,NE,47,3.0,7.0,61,0.00,,SCT043,0.00,311.00,VWS V14.01,2013-09-09 21:30:00,
2013-09-09 17:35:00,77.8,63.8,30.04,ENE,78,0.0,2.0,62,0.00,,SCT043,0.00,287.00,VWS V14.01,2013-09-09 21:35:00,
2013-09-09 17:40:00,78.0,63.5,30.04,NE,37,3.0,5.0,61,0.00,,SCT043,0.00,201.00,VWS V14.01,2013-09-09 21:40:00,
2013-09-09 17:45:00,77.8,63.3,30.04,ENE,72,0.0,6.0,61,0.00,,SCT043,0.00,262.00,VWS V14.01,2013-09-09 21:45:00,
2013-09-09 17:50:00,77.8,63.8,30.04,NE,44,0.0,6.0,62,0.00,,SCT043,0.00,234.00,VWS V14.01,2013-09-09 21:50:00,
2013-09-09 17:56:00,77.8,63.8,30.04,ENE,71,0.0,1.0,62,0.00,,SCT043,0.00,218.00,VWS V14.01,2013-09-09 21:56:00,
2013-09-09 18:01:00,77.6,63.6,30.04,ENE,61,2.0,5.0,62,0.00,,SCT043,0.00,211.00,VWS V14.01,2013-09-09 22:01:00,
2013-09-09 18:06:00,77.3,63.3,30.04,North,0,0.0,6.0,62,0.00,,SCT060,0.00,195.00,VWS V14.01,2013-09-09 22:06:00,
2013-09-09 18:11:00,76.9,63.4,30.04,ENE,59,0.0,7.0,63,0.00,,SCT060,0.00,171.00,VWS V14.01,2013-09-09 22:11:00,
2013-09-09 18:16:00,76.9,63.4,30.04,NE,49,4.0,5.0,63,0.00,,SCT060,0.00,76.00,VWS V14.01,2013-09-09 22:16:00,
2013-09-09 18:21:00,76.6,63.1,30.04,East,90,3.0,5.0,63,0.00,,SCT060,0.00,60.00,VWS V14.01,2013-09-09 22:21:00,
2013-09-09 18:26:00,75.8,62.8,30.04,ENE,76,2.0,3.0,64,0.00,,SCT060,0.00,49.00,VWS V14.01,2013-09-09 22:26:00,
2013-09-09 18:31:00,75.5,62.9,30.04,NE,54,1.0,3.0,65,0.00,,SCT060,0.00,48.00,VWS V14.01,2013-09-09 22:31:00,
2013-09-09 18:36:00,75.1,63.0,30.05,ENE,76,0.0,2.0,66,0.00,,SCT060,0.00,49.00,VWS V14.01,2013-09-09 22:36:00,
2013-09-09 18:41:00,74.8,62.7,30.05,NE,55,3.0,6.0,66,0.00,,SCT060,0.00,55.00,VWS V14.01,2013-09-09 22:41:00,
2013-09-09 18:46:00,74.4,62.7,30.05,East,89,0.0,2.0,67,0.00,,SCT060,0.00,77.00,VWS V14.01,2013-09-09 22:46:00,
2013-09-09 18:51:00,74.3,62.6,30.04,ENE,75,1.0,3.0,67,0.00,,SCT060,0.00,37.00,VWS V14.01,2013-09-09 22:51:00,
2013-09-09 18:57:00,74.1,62.5,30.04,ESE,120,0.0,2.0,67,0.00,,SCT060,0.00,28.00,VWS V14.01,2013-09-09 22:57:00,
2013-09-09 19:02:00,73.7,62.1,30.04,East,89,0.0,3.0,67,0.00,,SCT060,0.00,21.00,VWS V14.01,2013-09-09 23:02:00,
2013-09-09 19:07:00,73.4,62.2,30.05,East,86,2.0,5.0,68,0.00,,CLR,0.00,19.00,VWS V14.01,2013-09-09 23:07:00,
2013-09-09 19:12:00,73.0,62.2,30.05,East,90,2.0,5.0,69,0.00,,CLR,0.00,18.00,VWS V14.01,2013-09-09 23:12:00,
2013-09-09 19:17:00,72.7,62.0,30.05,ENE,76,2.0,3.0,69,0.00,,CLR,0.00,19.00,VWS V14.01,2013-09-09 23:17:00,
2013-09-09 19:22:00,72.5,61.8,30.05,ESE,110,2.0,4.0,69,0.00,,CLR,0.00,19.00,VWS V14.01,2013-09-09 23:22:00,
2013-09-09 19:27:00,72.2,61.9,30.05,ENE,72,2.0,3.0,70,0.00,,CLR,0.00,14.00,VWS V14.01,2013-09-09 23:27:00,
2013-09-09 19:32:00,72.0,62.1,30.05,ENE,78,1.0,4.0,71,0.00,,CLR,0.00,9.00,VWS V14.01,2013-09-09 23:32:00,
2013-09-09 19:37:00,71.7,61.8,30.06,ENE,72,1.0,7.0,71,0.00,,CLR,0.00,5.00,VWS V14.01,2013-09-09 23:37:00,
2013-09-09 19:42:00,71.3,61.8,30.06,ENE,69,3.0,7.0,72,0.00,,CLR,0.00,0.00,VWS V14.01,2013-09-09 23:42:00,
2013-09-09 19:47:00,71.1,61.6,30.07,East,99,0.0,6.0,72,0.00,,CLR,0.00,0.00,VWS V14.01,2013-09-09 23:47:00,
2013-09-09 19:52:00,70.8,61.7,30.07,East,93,0.0,6.0,73,0.00,,CLR,0.00,0.00,VWS V14.01,2013-09-09 23:52:00,
2013-09-09 19:57:00,70.6,61.5,30.07,NE,47,3.0,5.0,73,0.00,,CLR,0.00,0.00,VWS V14.01,2013-09-09 23:57:00,
2013-09-09 20:03:00,70.3,61.2,30.07,East,80,0.0,5.0,73,0.00,,CLR,0.00,0.00,VWS V14.01,2013-09-10 00:03:00,
2013-09-09 20:08:00,70.1,61.0,30.07,ENE,78,0.0,2.0,73,0.00,,CLR,0.00,0.00,VWS V14.01,2013-09-10 00:08:00,
2013-09-09 20:13:00,69.9,60.9,30.07,ESE,102,0.0,2.0,73,0.00,,CLR,0.00,0.00,VWS V14.01,2013-09-10 00:13:00,
2013-09-09 20:18:00,69.6,60.6,30.08,East,79,0.0,3.0,73,0.00,,CLR,0.00,0.00,VWS V14.01,2013-09-10 00:18:00,
2013-09-09 20:23:00,69.4,60.8,30.08,East,82,1.0,3.0,74,0.00,,CLR,0.00,0.00,VWS V14.01,2013-09-10 00:23:00,
2013-09-09 20:28:00,69.1,60.5,30.08,ENE,61,1.0,3.0,74,0.00,,CLR,0.00,0.00,VWS V14.01,2013-09-10 00:28:00,
2013-09-09 20:33:00,68.9,60.3,30.08,East,90,0.0,4.0,74,0.00,,CLR,0.00,0.00,VWS V14.01,2013-09-10 00:33:00,
2013-09-09 20:38:00,68.8,60.2,30.08,East,85,1.0,2.0,74,0.00,,CLR,0.00,0.00,VWS V14.01,2013-09-10 00:38:00,
2013-09-09 20:43:00,68.6,60.0,30.08,East,85,0.0,2.0,74,0.00,,CLR,0.00,0.00,VWS V14.01,2013-09-10 00:43:00,
2013-09-09 20:48:00,68.4,59.8,30.08,East,85,0.0,2.0,74,0.00,,CLR,0.00,0.00,VWS V14.01,2013-09-10 00:48:00,
2013-09-09 20:53:00,68.3,59.7,30.08,East,85,0.0,2.0,74,0.00,,CLR,0.00,0.00,VWS V14.01,2013-09-10 00:53:00,
2013-09-09 20:58:00,68.3,59.7,30.08,East,85,0.0,1.0,74,0.00,,CLR,0.00,0.00,VWS V14.01,2013-09-10 00:58:00,
2013-09-09 21:03:00,68.1,59.9,30.09,East,85,0.0,0.0,75,0.00,,CLR,0.00,0.00,VWS V14.01,2013-09-10 01:03:00,
2013-09-09 21:08:00,67.9,59.7,30.09,East,85,0.0,0.0,75,0.00,,CLR,0.00,0.00,VWS V14.01,2013-09-10 01:08:00,
2013-09-09 21:14:00,67.9,59.7,30.09,East,85,0.0,0.0,75,0.00,,CLR,0.00,0.00,VWS V14.01,2013-09-10 01:14:00,
2013-09-09 21:19:00,67.9,59.7,30.09,ESE,109,0.0,0.0,75,0.00,,CLR,0.00,0.00,VWS V14.01,2013-09-10 01:19:00,
2013-09-09 21:24:00,67.8,60.0,30.09,ESE,109,0.0,0.0,76,0.00,,CLR,0.00,0.00,VWS V14.01,2013-09-10 01:24:00,
2013-09-09 21:29:00,67.6,60.1,30.09,SE,134,0.0,0.0,77,0.00,,CLR,0.00,0.00,VWS V14.01,2013-09-10 01:29:00,
2013-09-09 21:34:00,67.4,60.3,30.10,SE,136,0.0,0.0,78,0.00,,CLR,0.00,0.00,VWS V14.01,2013-09-10 01:34:00,
2013-09-09 21:39:00,67.3,60.6,30.10,SE,136,0.0,0.0,79,0.00,,CLR,0.00,0.00,VWS V14.01,2013-09-10 01:39:00,
2013-09-09 21:44:00,66.9,60.5,30.10,SE,136,0.0,0.0,80,0.00,,CLR,0.00,0.00,VWS V14.01,2013-09-10 01:44:00,
2013-09-09 21:49:00,66.6,60.6,30.10,SE,136,0.0,0.0,81,0.00,,CLR,0.00,0.00,VWS V14.01,2013-09-10 01:49:00,
2013-09-09 21:54:00,66.4,60.4,30.10,SE,136,0.0,0.0,81,0.00,,CLR,0.00,0.00,VWS V14.01,2013-09-10 01:54:00,
2013-09-09 21:59:00,66.3,60.3,30.10,SE,136,0.0,0.0,81,0.00,,CLR,0.00,0.00,VWS V14.01,2013-09-10 01:59:00,
2013-09-09 22:04:00,66.3,60.3,30.10,SE,136,0.0,0.0,81,0.00,,CLR,0.00,0.00,VWS V14.01,2013-09-10 02:04:00,
2013-09-09 22:09:00,66.3,60.3,30.10,SE,136,0.0,0.0,81,0.00,,CLR,0.00,0.00,VWS V14.01,2013-09-10 02:09:00,
2013-09-09 22:14:00,66.3,60.7,30.10,SE,136,0.0,0.0,82,0.00,,CLR,0.00,0.00,VWS V14.01,2013-09-10 02:14:00,
2013-09-09 22:20:00,66.1,60.5,30.09,SE,136,0.0,0.0,82,0.00,,CLR,0.00,0.00,VWS V14.01,2013-09-10 02:20:00,
2013-09-09 22:25:00,65.8,60.5,30.09,SE,136,0.0,0.0,83,0.00,,CLR,0.00,0.00,VWS V14.01,2013-09-10 02:25:00,
2013-09-09 22:30:00,65.8,60.5,30.09,SE,136,0.0,0.0,83,0.00,,CLR,0.00,0.00,VWS V14.01,2013-09-10 02:30:00,
2013-09-09 22:35:00,65.6,60.6,30.10,SE,136,0.0,0.0,84,0.00,,CLR,0.00,0.00,VWS V14.01,2013-09-10 02:35:00,
2013-09-09 22:40:00,65.6,60.6,30.10,SE,136,0.0,0.0,84,0.00,,CLR,0.00,0.00,VWS V14.01,2013-09-10 02:40:00,
2013-09-09 22:45:00,65.6,61.0,30.10,SE,136,0.0,0.0,85,0.00,,CLR,0.00,0.00,VWS V14.01,2013-09-10 02:45:00,
2013-09-09 22:50:00,65.6,61.0,30.10,SE,136,0.0,0.0,85,0.00,,CLR,0.00,0.00,VWS V14.01,2013-09-10 02:50:00,
2013-09-09 22:55:00,65.4,60.8,30.10,SE,136,0.0,0.0,85,0.00,,CLR,0.00,0.00,VWS V14.01,2013-09-10 02:55:00,
2013-09-09 23:00:00,65.4,61.1,30.10,SE,136,0.0,0.0,86,0.00,,CLR,0.00,0.00,VWS V14.01,2013-09-10 03:00:00,
2013-09-09 23:05:00,65.3,61.0,30.10,SE,136,0.0,0.0,86,0.00,,CLR,0.00,0.00,VWS V14.01,2013-09-10 03:05:00,
2013-09-09 23:10:00,65.0,60.7,30.10,SE,136,0.0,0.0,86,0.00,,CLR,0.00,0.00,VWS V14.01,2013-09-10 03:10:00,
2013-09-09 23:15:00,65.0,61.0,30.10,SE,136,0.0,0.0,87,0.00,,CLR,0.00,0.00,VWS V14.01,2013-09-10 03:15:00,
2013-09-09 23:20:00,64.8,60.8,30.10,SE,136,0.0,0.0,87,0.00,,CLR,0.00,0.00,VWS V14.01,2013-09-10 03:20:00,
2013-09-09 23:26:00,64.6,60.7,30.10,SE,136,0.0,0.0,87,0.00,,CLR,0.00,0.00,VWS V14.01,2013-09-10 03:26:00,
2013-09-09 23:31:00,64.5,60.9,30.10,SE,136,0.0,0.0,88,0.00,,CLR,0.00,0.00,VWS V14.01,2013-09-10 03:31:00,
2013-09-09 23:36:00,64.3,60.7,30.10,SE,136,0.0,0.0,88,0.00,,CLR,0.00,0.00,VWS V14.01,2013-09-10 03:36:00,
2013-09-09 23:41:00,64.2,60.9,30.10,SE,136,0.0,0.0,89,0.00,,CLR,0.00,0.00,VWS V14.01,2013-09-10 03:41:00,
2013-09-09 23:46:00,64.2,60.9,30.10,SE,136,0.0,0.0,89,0.00,,CLR,0.00,0.00,VWS V14.01,2013-09-10 03:46:00,
2013-09-09 23:51:00,64.2,60.9,30.09,SE,136,0.0,0.0,89,0.00,,CLR,0.00,0.00,VWS V14.01,2013-09-10 03:51:00,
2013-09-09 23:56:00,64.2,60.9,30.09,SE,136,0.0,0.0,89,0.00,,CLR,0.00,0.00,VWS V14.01,2013-09-10 03:56:00,